sensor_id;sensor_type;location;lat;lon;timestamp;P1;durP1;ratioP1;P2;durP2;ratioP2
20976;SDS011;10647;51.016;3.720;2022-11-03T00:01:49;14.83;;;2.53;;
20976;SDS011;10647;51.016;3.720;2022-11-03T00:04:17;12.53;;;2.20;;
20976;SDS011;10647;51.016;3.720;2022-11-03T00:09:20;14.53;;;2.73;;
20976;SDS011;10647;51.016;3.720;2022-11-03T00:11:51;14.37;;;2.43;;
20976;SDS011;10647;51.016;3.720;2022-11-03T00:14:22;15.77;;;2.70;;
20976;SDS011;10647;51.016;3.720;2022-11-03T00:16:56;12.67;;;2.70;;
20976;SDS011;10647;51.016;3.720;2022-11-03T00:19:25;15.63;;;2.63;;
20976;SDS011;10647;51.016;3.720;2022-11-03T00:21:52;11.03;;;2.50;;
20976;SDS011;10647;51.016;3.720;2022-11-03T00:24:25;18.03;;;2.97;;
20976;SDS011;10647;51.016;3.720;2022-11-03T00:26:52;9.73;;;2.00;;
20976;SDS011;10647;51.016;3.720;2022-11-03T00:29:20;14.80;;;2.73;;
20976;SDS011;10647;51.016;3.720;2022-11-03T00:31:55;13.37;;;3.10;;
20976;SDS011;10647;51.016;3.720;2022-11-03T00:34:22;13.43;;;2.60;;
20976;SDS011;10647;51.016;3.720;2022-11-03T00:39:21;19.13;;;2.50;;
20976;SDS011;10647;51.016;3.720;2022-11-03T00:41:49;12.23;;;2.33;;
20976;SDS011;10647;51.016;3.720;2022-11-03T00:44:19;14.40;;;2.30;;
20976;SDS011;10647;51.016;3.720;2022-11-03T00:54:32;17.57;;;3.40;;
20976;SDS011;10647;51.016;3.720;2022-11-03T00:57:14;9.27;;;2.53;;
20976;SDS011;10647;51.016;3.720;2022-11-03T00:59:43;10.67;;;2.70;;
20976;SDS011;10647;51.016;3.720;2022-11-03T01:02:10;16.20;;;2.90;;
20976;SDS011;10647;51.016;3.720;2022-11-03T01:04:44;11.83;;;2.37;;
20976;SDS011;10647;51.016;3.720;2022-11-03T01:07:30;13.03;;;2.20;;
20976;SDS011;10647;51.016;3.720;2022-11-03T01:10:00;13.60;;;2.23;;
20976;SDS011;10647;51.016;3.720;2022-11-03T01:12:27;14.87;;;2.77;;
20976;SDS011;10647;51.016;3.720;2022-11-03T01:14:55;13.03;;;2.67;;
20976;SDS011;10647;51.016;3.720;2022-11-03T01:17:28;19.40;;;2.50;;
20976;SDS011;10647;51.016;3.720;2022-11-03T01:20:02;12.40;;;2.80;;
20976;SDS011;10647;51.016;3.720;2022-11-03T01:22:32;12.03;;;2.30;;
20976;SDS011;10647;51.016;3.720;2022-11-03T01:24:59;13.93;;;2.30;;
20976;SDS011;10647;51.016;3.720;2022-11-03T01:27:29;13.30;;;2.57;;
20976;SDS011;10647;51.016;3.720;2022-11-03T01:29:56;15.07;;;2.73;;
20976;SDS011;10647;51.016;3.720;2022-11-03T01:32:36;10.57;;;2.97;;
20976;SDS011;10647;51.016;3.720;2022-11-03T01:35:09;13.63;;;2.50;;
20976;SDS011;10647;51.016;3.720;2022-11-03T01:37:38;13.20;;;2.50;;
20976;SDS011;10647;51.016;3.720;2022-11-03T01:42:42;13.73;;;2.50;;
20976;SDS011;10647;51.016;3.720;2022-11-03T01:45:09;12.50;;;2.93;;
20976;SDS011;10647;51.016;3.720;2022-11-03T01:47:39;15.40;;;2.63;;
20976;SDS011;10647;51.016;3.720;2022-11-03T01:50:10;13.57;;;2.30;;
20976;SDS011;10647;51.016;3.720;2022-11-03T01:52:41;13.13;;;2.63;;
20976;SDS011;10647;51.016;3.720;2022-11-03T01:55:13;17.20;;;2.73;;
20976;SDS011;10647;51.016;3.720;2022-11-03T01:57:46;15.73;;;2.77;;
20976;SDS011;10647;51.016;3.720;2022-11-03T02:00:15;11.33;;;2.40;;
20976;SDS011;10647;51.016;3.720;2022-11-03T02:02:42;14.33;;;2.70;;
20976;SDS011;10647;51.016;3.720;2022-11-03T02:05:18;17.40;;;3.03;;
20976;SDS011;10647;51.016;3.720;2022-11-03T02:10:47;15.37;;;3.17;;
20976;SDS011;10647;51.016;3.720;2022-11-03T02:13:25;10.37;;;2.20;;
20976;SDS011;10647;51.016;3.720;2022-11-03T02:18:25;16.27;;;2.80;;
20976;SDS011;10647;51.016;3.720;2022-11-03T02:21:04;16.37;;;2.40;;
20976;SDS011;10647;51.016;3.720;2022-11-03T02:26:42;10.10;;;2.23;;
20976;SDS011;10647;51.016;3.720;2022-11-03T02:29:14;12.70;;;2.50;;
20976;SDS011;10647;51.016;3.720;2022-11-03T02:34:41;8.93;;;2.23;;
20976;SDS011;10647;51.016;3.720;2022-11-03T02:37:15;19.53;;;2.90;;
20976;SDS011;10647;51.016;3.720;2022-11-03T02:39:56;11.57;;;2.20;;
20976;SDS011;10647;51.016;3.720;2022-11-03T02:42:32;12.37;;;2.50;;
20976;SDS011;10647;51.016;3.720;2022-11-03T02:47:37;8.60;;;2.17;;
20976;SDS011;10647;51.016;3.720;2022-11-03T02:50:06;10.67;;;1.90;;
20976;SDS011;10647;51.016;3.720;2022-11-03T02:52:41;14.27;;;2.73;;
20976;SDS011;10647;51.016;3.720;2022-11-03T02:58:33;12.17;;;2.40;;
20976;SDS011;10647;51.016;3.720;2022-11-03T03:03:48;14.00;;;2.67;;
20976;SDS011;10647;51.016;3.720;2022-11-03T03:06:28;15.50;;;2.47;;
20976;SDS011;10647;51.016;3.720;2022-11-03T03:09:16;18.40;;;2.60;;
20976;SDS011;10647;51.016;3.720;2022-11-03T03:11:42;14.60;;;2.50;;
20976;SDS011;10647;51.016;3.720;2022-11-03T03:14:22;12.47;;;3.07;;
20976;SDS011;10647;51.016;3.720;2022-11-03T03:22:46;12.50;;;2.67;;
20976;SDS011;10647;51.016;3.720;2022-11-03T03:25:27;11.80;;;2.57;;
20976;SDS011;10647;51.016;3.720;2022-11-03T03:28:20;11.73;;;2.87;;
20976;SDS011;10647;51.016;3.720;2022-11-03T03:30:50;11.63;;;2.60;;
20976;SDS011;10647;51.016;3.720;2022-11-03T03:33:20;13.97;;;2.60;;
20976;SDS011;10647;51.016;3.720;2022-11-03T03:35:49;9.10;;;2.40;;
20976;SDS011;10647;51.016;3.720;2022-11-03T03:38:23;11.67;;;2.37;;
20976;SDS011;10647;51.016;3.720;2022-11-03T03:40:53;9.93;;;2.50;;
20976;SDS011;10647;51.016;3.720;2022-11-03T03:43:23;9.30;;;2.30;;
20976;SDS011;10647;51.016;3.720;2022-11-03T03:45:54;10.63;;;2.80;;
20976;SDS011;10647;51.016;3.720;2022-11-03T03:48:26;13.83;;;2.63;;
20976;SDS011;10647;51.016;3.720;2022-11-03T03:50:53;12.87;;;2.50;;
20976;SDS011;10647;51.016;3.720;2022-11-03T03:53:21;17.10;;;2.60;;
20976;SDS011;10647;51.016;3.720;2022-11-03T03:55:52;13.17;;;2.57;;
20976;SDS011;10647;51.016;3.720;2022-11-03T03:58:26;10.60;;;2.50;;
20976;SDS011;10647;51.016;3.720;2022-11-03T04:00:53;10.87;;;2.37;;
20976;SDS011;10647;51.016;3.720;2022-11-03T04:06:04;11.53;;;2.73;;
20976;SDS011;10647;51.016;3.720;2022-11-03T04:08:32;8.03;;;2.40;;
20976;SDS011;10647;51.016;3.720;2022-11-03T04:11:03;9.83;;;2.53;;
20976;SDS011;10647;51.016;3.720;2022-11-03T04:13:52;10.37;;;2.33;;
20976;SDS011;10647;51.016;3.720;2022-11-03T04:16:37;13.10;;;2.47;;
20976;SDS011;10647;51.016;3.720;2022-11-03T04:19:29;11.83;;;2.60;;
20976;SDS011;10647;51.016;3.720;2022-11-03T04:22:20;9.10;;;2.40;;
20976;SDS011;10647;51.016;3.720;2022-11-03T04:24:49;10.50;;;2.90;;
20976;SDS011;10647;51.016;3.720;2022-11-03T04:30:19;11.73;;;2.20;;
20976;SDS011;10647;51.016;3.720;2022-11-03T04:36:18;11.90;;;2.57;;
20976;SDS011;10647;51.016;3.720;2022-11-03T04:39:06;12.87;;;2.67;;
20976;SDS011;10647;51.016;3.720;2022-11-03T04:41:42;9.53;;;2.40;;
20976;SDS011;10647;51.016;3.720;2022-11-03T04:44:12;12.03;;;2.37;;
20976;SDS011;10647;51.016;3.720;2022-11-03T04:46:58;12.43;;;2.30;;
20976;SDS011;10647;51.016;3.720;2022-11-03T04:49:26;12.97;;;2.77;;
20976;SDS011;10647;51.016;3.720;2022-11-03T04:51:54;12.43;;;2.40;;
20976;SDS011;10647;51.016;3.720;2022-11-03T04:54:21;10.47;;;2.03;;
20976;SDS011;10647;51.016;3.720;2022-11-03T04:56:49;9.80;;;2.60;;
20976;SDS011;10647;51.016;3.720;2022-11-03T04:59:17;9.47;;;2.43;;
20976;SDS011;10647;51.016;3.720;2022-11-03T05:01:45;9.40;;;2.40;;
20976;SDS011;10647;51.016;3.720;2022-11-03T05:04:14;14.23;;;2.63;;
20976;SDS011;10647;51.016;3.720;2022-11-03T05:06:46;15.17;;;2.40;;
20976;SDS011;10647;51.016;3.720;2022-11-03T05:09:14;12.87;;;2.73;;
20976;SDS011;10647;51.016;3.720;2022-11-03T05:11:44;11.73;;;2.60;;
20976;SDS011;10647;51.016;3.720;2022-11-03T05:16:50;12.23;;;2.13;;
20976;SDS011;10647;51.016;3.720;2022-11-03T05:19:19;10.90;;;2.57;;
20976;SDS011;10647;51.016;3.720;2022-11-03T05:22:01;11.70;;;2.40;;
20976;SDS011;10647;51.016;3.720;2022-11-03T05:24:31;11.13;;;2.67;;
20976;SDS011;10647;51.016;3.720;2022-11-03T05:27:00;11.23;;;2.77;;
20976;SDS011;10647;51.016;3.720;2022-11-03T05:29:34;9.83;;;2.33;;
20976;SDS011;10647;51.016;3.720;2022-11-03T05:32:09;10.50;;;2.50;;
20976;SDS011;10647;51.016;3.720;2022-11-03T05:34:50;7.87;;;2.17;;
20976;SDS011;10647;51.016;3.720;2022-11-03T05:37:26;11.33;;;2.90;;
20976;SDS011;10647;51.016;3.720;2022-11-03T05:42:50;16.77;;;4.00;;
20976;SDS011;10647;51.016;3.720;2022-11-03T05:45:31;14.57;;;3.27;;
20976;SDS011;10647;51.016;3.720;2022-11-03T05:48:02;12.80;;;2.70;;
20976;SDS011;10647;51.016;3.720;2022-11-03T05:50:38;12.20;;;2.93;;
20976;SDS011;10647;51.016;3.720;2022-11-03T05:55:55;17.30;;;2.87;;
20976;SDS011;10647;51.016;3.720;2022-11-03T05:58:38;12.97;;;2.73;;
20976;SDS011;10647;51.016;3.720;2022-11-03T06:04:18;11.57;;;2.27;;
20976;SDS011;10647;51.016;3.720;2022-11-03T06:06:35;13.43;;;2.13;;
20976;SDS011;10647;51.016;3.720;2022-11-03T06:09:15;8.20;;;2.13;;
20976;SDS011;10647;51.016;3.720;2022-11-03T06:11:45;16.70;;;2.37;;
20976;SDS011;10647;51.016;3.720;2022-11-03T06:14:20;8.83;;;2.20;;
20976;SDS011;10647;51.016;3.720;2022-11-03T06:16:50;10.77;;;2.30;;
20976;SDS011;10647;51.016;3.720;2022-11-03T06:19:28;14.13;;;2.90;;
20976;SDS011;10647;51.016;3.720;2022-11-03T06:22:12;14.20;;;2.77;;
20976;SDS011;10647;51.016;3.720;2022-11-03T06:27:47;14.50;;;2.57;;
20976;SDS011;10647;51.016;3.720;2022-11-03T06:30:19;12.00;;;2.47;;
20976;SDS011;10647;51.016;3.720;2022-11-03T06:32:48;13.37;;;2.30;;
20976;SDS011;10647;51.016;3.720;2022-11-03T06:35:18;12.17;;;2.57;;
20976;SDS011;10647;51.016;3.720;2022-11-03T06:37:46;9.77;;;2.70;;
20976;SDS011;10647;51.016;3.720;2022-11-03T06:42:52;11.63;;;2.80;;
20976;SDS011;10647;51.016;3.720;2022-11-03T06:45:23;12.70;;;2.27;;
20976;SDS011;10647;51.016;3.720;2022-11-03T06:47:57;12.83;;;2.53;;
20976;SDS011;10647;51.016;3.720;2022-11-03T06:50:31;12.47;;;2.60;;
20976;SDS011;10647;51.016;3.720;2022-11-03T06:53:02;16.77;;;3.60;;
20976;SDS011;10647;51.016;3.720;2022-11-03T06:55:36;15.63;;;3.20;;
20976;SDS011;10647;51.016;3.720;2022-11-03T07:01:32;12.70;;;2.60;;
20976;SDS011;10647;51.016;3.720;2022-11-03T07:04:24;13.37;;;2.70;;
20976;SDS011;10647;51.016;3.720;2022-11-03T07:06:49;11.80;;;2.03;;
20976;SDS011;10647;51.016;3.720;2022-11-03T07:09:22;8.83;;;2.17;;
20976;SDS011;10647;51.016;3.720;2022-11-03T07:12:00;12.67;;;2.33;;
20976;SDS011;10647;51.016;3.720;2022-11-03T07:14:28;9.80;;;2.60;;
20976;SDS011;10647;51.016;3.720;2022-11-03T07:17:02;13.47;;;3.00;;
20976;SDS011;10647;51.016;3.720;2022-11-03T07:19:36;13.87;;;2.97;;
20976;SDS011;10647;51.016;3.720;2022-11-03T07:22:24;16.17;;;2.83;;
20976;SDS011;10647;51.016;3.720;2022-11-03T07:27:41;18.37;;;3.70;;
20976;SDS011;10647;51.016;3.720;2022-11-03T07:30:32;12.17;;;2.20;;
20976;SDS011;10647;51.016;3.720;2022-11-03T07:33:18;19.00;;;2.73;;
20976;SDS011;10647;51.016;3.720;2022-11-03T07:35:47;13.37;;;2.73;;
20976;SDS011;10647;51.016;3.720;2022-11-03T07:38:22;14.30;;;2.93;;
20976;SDS011;10647;51.016;3.720;2022-11-03T07:40:55;13.63;;;2.50;;
20976;SDS011;10647;51.016;3.720;2022-11-03T07:43:33;19.03;;;4.30;;
20976;SDS011;10647;51.016;3.720;2022-11-03T07:46:19;37.67;;;9.20;;
20976;SDS011;10647;51.016;3.720;2022-11-03T07:48:54;23.30;;;5.33;;
20976;SDS011;10647;51.016;3.720;2022-11-03T07:51:28;23.00;;;5.90;;
20976;SDS011;10647;51.016;3.720;2022-11-03T07:56:58;22.83;;;5.90;;
20976;SDS011;10647;51.016;3.720;2022-11-03T07:59:51;24.23;;;5.93;;
20976;SDS011;10647;51.016;3.720;2022-11-03T08:05:05;12.57;;;3.27;;
20976;SDS011;10647;51.016;3.720;2022-11-03T08:07:32;19.00;;;4.70;;
20976;SDS011;10647;51.016;3.720;2022-11-03T08:10:00;15.27;;;3.57;;
20976;SDS011;10647;51.016;3.720;2022-11-03T08:12:27;17.00;;;3.07;;
20976;SDS011;10647;51.016;3.720;2022-11-03T08:14:55;11.33;;;2.80;;
20976;SDS011;10647;51.016;3.720;2022-11-03T08:17:22;9.37;;;2.60;;
20976;SDS011;10647;51.016;3.720;2022-11-03T08:19:51;15.20;;;3.03;;
20976;SDS011;10647;51.016;3.720;2022-11-03T08:22:18;12.03;;;3.07;;
20976;SDS011;10647;51.016;3.720;2022-11-03T08:24:48;16.23;;;2.93;;
20976;SDS011;10647;51.016;3.720;2022-11-03T08:27:15;14.73;;;3.30;;
20976;SDS011;10647;51.016;3.720;2022-11-03T08:29:44;16.23;;;2.90;;
20976;SDS011;10647;51.016;3.720;2022-11-03T08:32:11;12.70;;;3.13;;
20976;SDS011;10647;51.016;3.720;2022-11-03T08:34:39;8.10;;;2.63;;
20976;SDS011;10647;51.016;3.720;2022-11-03T08:37:06;13.00;;;3.47;;
20976;SDS011;10647;51.016;3.720;2022-11-03T08:39:34;14.77;;;3.07;;
20976;SDS011;10647;51.016;3.720;2022-11-03T08:42:02;15.57;;;3.17;;
20976;SDS011;10647;51.016;3.720;2022-11-03T08:44:29;10.00;;;2.63;;
20976;SDS011;10647;51.016;3.720;2022-11-03T08:46:57;10.73;;;2.67;;
20976;SDS011;10647;51.016;3.720;2022-11-03T08:49:24;16.93;;;2.83;;
20976;SDS011;10647;51.016;3.720;2022-11-03T08:51:52;18.77;;;3.83;;
20976;SDS011;10647;51.016;3.720;2022-11-03T08:54:19;17.90;;;5.33;;
20976;SDS011;10647;51.016;3.720;2022-11-03T08:56:47;14.77;;;3.20;;
20976;SDS011;10647;51.016;3.720;2022-11-03T08:59:14;9.93;;;2.97;;
20976;SDS011;10647;51.016;3.720;2022-11-03T09:01:42;19.33;;;4.50;;
20976;SDS011;10647;51.016;3.720;2022-11-03T09:04:10;20.63;;;4.10;;
20976;SDS011;10647;51.016;3.720;2022-11-03T09:06:38;13.17;;;3.90;;
20976;SDS011;10647;51.016;3.720;2022-11-03T09:09:06;15.10;;;4.17;;
20976;SDS011;10647;51.016;3.720;2022-11-03T09:11:33;14.60;;;3.53;;
20976;SDS011;10647;51.016;3.720;2022-11-03T09:14:01;16.90;;;4.50;;
20976;SDS011;10647;51.016;3.720;2022-11-03T09:16:28;14.70;;;4.23;;
20976;SDS011;10647;51.016;3.720;2022-11-03T09:18:57;10.90;;;3.33;;
20976;SDS011;10647;51.016;3.720;2022-11-03T09:21:24;14.00;;;2.77;;
20976;SDS011;10647;51.016;3.720;2022-11-03T09:23:52;11.70;;;3.10;;
20976;SDS011;10647;51.016;3.720;2022-11-03T09:26:19;13.63;;;3.87;;
20976;SDS011;10647;51.016;3.720;2022-11-03T09:28:47;11.17;;;2.93;;
20976;SDS011;10647;51.016;3.720;2022-11-03T09:31:14;11.70;;;3.43;;
20976;SDS011;10647;51.016;3.720;2022-11-03T09:33:42;13.23;;;3.30;;
20976;SDS011;10647;51.016;3.720;2022-11-03T09:36:10;15.00;;;3.60;;
20976;SDS011;10647;51.016;3.720;2022-11-03T09:38:37;11.27;;;3.37;;
20976;SDS011;10647;51.016;3.720;2022-11-03T09:41:05;12.00;;;3.50;;
20976;SDS011;10647;51.016;3.720;2022-11-03T09:43:32;20.20;;;4.17;;
20976;SDS011;10647;51.016;3.720;2022-11-03T09:46:00;14.87;;;4.30;;
20976;SDS011;10647;51.016;3.720;2022-11-03T09:48:28;16.00;;;4.03;;
20976;SDS011;10647;51.016;3.720;2022-11-03T09:50:55;18.70;;;5.43;;
20976;SDS011;10647;51.016;3.720;2022-11-03T09:53:23;27.20;;;5.97;;
20976;SDS011;10647;51.016;3.720;2022-11-03T09:55:51;17.43;;;4.63;;
20976;SDS011;10647;51.016;3.720;2022-11-03T09:58:18;18.60;;;4.17;;
20976;SDS011;10647;51.016;3.720;2022-11-03T10:00:46;13.80;;;3.93;;
20976;SDS011;10647;51.016;3.720;2022-11-03T10:03:15;9.20;;;2.30;;
20976;SDS011;10647;51.016;3.720;2022-11-03T10:05:45;11.00;;;2.50;;
20976;SDS011;10647;51.016;3.720;2022-11-03T10:08:23;14.23;;;2.87;;
20976;SDS011;10647;51.016;3.720;2022-11-03T10:10:53;12.30;;;2.98;;
20976;SDS011;10647;51.016;3.720;2022-11-03T10:13:28;15.15;;;2.92;;
20976;SDS011;10647;51.016;3.720;2022-11-03T10:15:58;10.30;;;2.30;;
20976;SDS011;10647;51.016;3.720;2022-11-03T10:18:31;10.55;;;2.90;;
20976;SDS011;10647;51.016;3.720;2022-11-03T10:21:03;23.50;;;3.95;;
20976;SDS011;10647;51.016;3.720;2022-11-03T10:23:33;15.90;;;3.42;;
20976;SDS011;10647;51.016;3.720;2022-11-03T10:26:07;34.08;;;9.60;;
20976;SDS011;10647;51.016;3.720;2022-11-03T10:28:36;18.35;;;4.50;;
20976;SDS011;10647;51.016;3.720;2022-11-03T10:31:05;18.77;;;3.58;;
20976;SDS011;10647;51.016;3.720;2022-11-03T10:33:35;17.00;;;2.98;;
20976;SDS011;10647;51.016;3.720;2022-11-03T10:38:45;33.20;;;7.33;;
20976;SDS011;10647;51.016;3.720;2022-11-03T10:41:17;11.15;;;3.58;;
20976;SDS011;10647;51.016;3.720;2022-11-03T10:47:01;10.72;;;2.90;;
20976;SDS011;10647;51.016;3.720;2022-11-03T10:49:34;11.45;;;3.70;;
20976;SDS011;10647;51.016;3.720;2022-11-03T10:52:13;16.57;;;3.95;;
20976;SDS011;10647;51.016;3.720;2022-11-03T10:54:44;15.08;;;4.45;;
20976;SDS011;10647;51.016;3.720;2022-11-03T10:57:12;14.45;;;3.80;;
20976;SDS011;10647;51.016;3.720;2022-11-03T10:59:40;10.50;;;2.80;;
20976;SDS011;10647;51.016;3.720;2022-11-03T11:02:12;16.27;;;3.83;;
20976;SDS011;10647;51.016;3.720;2022-11-03T11:04:45;12.88;;;3.60;;
20976;SDS011;10647;51.016;3.720;2022-11-03T11:07:22;14.65;;;4.03;;
20976;SDS011;10647;51.016;3.720;2022-11-03T11:09:51;13.25;;;4.25;;
20976;SDS011;10647;51.016;3.720;2022-11-03T11:12:23;11.45;;;2.70;;
20976;SDS011;10647;51.016;3.720;2022-11-03T11:14:55;8.67;;;2.10;;
20976;SDS011;10647;51.016;3.720;2022-11-03T11:22:50;7.73;;;2.00;;
20976;SDS011;10647;51.016;3.720;2022-11-03T11:25:17;10.53;;;2.50;;
20976;SDS011;10647;51.016;3.720;2022-11-03T11:33:00;5.47;;;1.98;;
20976;SDS011;10647;51.016;3.720;2022-11-03T11:37:55;4.28;;;1.80;;
20976;SDS011;10647;51.016;3.720;2022-11-03T11:48:39;5.70;;;2.15;;
20976;SDS011;10647;51.016;3.720;2022-11-03T11:51:07;7.65;;;2.22;;
20976;SDS011;10647;51.016;3.720;2022-11-03T11:53:42;7.20;;;2.37;;
20976;SDS011;10647;51.016;3.720;2022-11-03T11:56:10;8.08;;;2.08;;
20976;SDS011;10647;51.016;3.720;2022-11-03T11:58:53;8.63;;;2.45;;
20976;SDS011;10647;51.016;3.720;2022-11-03T12:01:23;11.28;;;2.10;;
20976;SDS011;10647;51.016;3.720;2022-11-03T12:03:53;6.17;;;2.08;;
20976;SDS011;10647;51.016;3.720;2022-11-03T12:06:32;11.45;;;3.33;;
20976;SDS011;10647;51.016;3.720;2022-11-03T12:09:23;9.33;;;2.20;;
20976;SDS011;10647;51.016;3.720;2022-11-03T12:11:56;12.53;;;3.30;;
20976;SDS011;10647;51.016;3.720;2022-11-03T12:19:52;9.13;;;2.00;;
20976;SDS011;10647;51.016;3.720;2022-11-03T12:24:57;7.33;;;2.12;;
20976;SDS011;10647;51.016;3.720;2022-11-03T12:29:57;5.67;;;2.20;;
20976;SDS011;10647;51.016;3.720;2022-11-03T12:32:26;7.67;;;2.00;;
20976;SDS011;10647;51.016;3.720;2022-11-03T12:34:54;6.15;;;2.00;;
20976;SDS011;10647;51.016;3.720;2022-11-03T12:37:22;9.83;;;3.05;;
20976;SDS011;10647;51.016;3.720;2022-11-03T12:39:49;12.85;;;4.55;;
20976;SDS011;10647;51.016;3.720;2022-11-03T12:42:17;10.82;;;3.65;;
20976;SDS011;10647;51.016;3.720;2022-11-03T12:44:45;13.10;;;3.30;;
20976;SDS011;10647;51.016;3.720;2022-11-03T12:47:13;9.68;;;2.95;;
20976;SDS011;10647;51.016;3.720;2022-11-03T12:49:40;15.35;;;4.45;;
20976;SDS011;10647;51.016;3.720;2022-11-03T12:52:08;12.55;;;2.65;;
20976;SDS011;10647;51.016;3.720;2022-11-03T12:54:36;6.08;;;2.42;;
20976;SDS011;10647;51.016;3.720;2022-11-03T12:57:04;5.85;;;2.12;;
20976;SDS011;10647;51.016;3.720;2022-11-03T12:59:32;6.67;;;2.05;;
20976;SDS011;10647;51.016;3.720;2022-11-03T13:01:59;7.60;;;2.52;;
20976;SDS011;10647;51.016;3.720;2022-11-03T13:04:27;6.85;;;2.12;;
20976;SDS011;10647;51.016;3.720;2022-11-03T13:06:56;7.08;;;2.00;;
20976;SDS011;10647;51.016;3.720;2022-11-03T13:09:24;10.58;;;2.45;;
20976;SDS011;10647;51.016;3.720;2022-11-03T13:11:52;6.97;;;2.60;;
20976;SDS011;10647;51.016;3.720;2022-11-03T13:14:37;8.20;;;2.67;;
20976;SDS011;10647;51.016;3.720;2022-11-03T13:17:05;9.58;;;2.98;;
20976;SDS011;10647;51.016;3.720;2022-11-03T13:19:32;14.63;;;3.75;;
20976;SDS011;10647;51.016;3.720;2022-11-03T13:21:59;12.10;;;3.75;;
20976;SDS011;10647;51.016;3.720;2022-11-03T13:24:27;13.18;;;2.42;;
20976;SDS011;10647;51.016;3.720;2022-11-03T13:26:54;12.98;;;2.33;;
20976;SDS011;10647;51.016;3.720;2022-11-03T13:29:22;8.05;;;2.22;;
20976;SDS011;10647;51.016;3.720;2022-11-03T13:31:49;6.35;;;1.90;;
20976;SDS011;10647;51.016;3.720;2022-11-03T13:34:17;9.43;;;2.15;;
20976;SDS011;10647;51.016;3.720;2022-11-03T13:36:44;12.30;;;2.10;;
20976;SDS011;10647;51.016;3.720;2022-11-03T13:39:12;6.42;;;2.37;;
20976;SDS011;10647;51.016;3.720;2022-11-03T13:41:39;6.47;;;2.47;;
20976;SDS011;10647;51.016;3.720;2022-11-03T13:44:07;5.92;;;2.22;;
20976;SDS011;10647;51.016;3.720;2022-11-03T13:46:34;8.38;;;2.52;;
20976;SDS011;10647;51.016;3.720;2022-11-03T13:49:02;13.55;;;3.60;;
20976;SDS011;10647;51.016;3.720;2022-11-03T13:51:30;12.30;;;3.77;;
20976;SDS011;10647;51.016;3.720;2022-11-03T13:53:57;13.28;;;4.20;;
20976;SDS011;10647;51.016;3.720;2022-11-03T13:56:25;10.35;;;3.35;;
20976;SDS011;10647;51.016;3.720;2022-11-03T13:58:54;7.53;;;2.00;;
20976;SDS011;10647;51.016;3.720;2022-11-03T14:01:21;6.23;;;1.93;;
20976;SDS011;10647;51.016;3.720;2022-11-03T14:03:49;6.33;;;2.03;;
20976;SDS011;10647;51.016;3.720;2022-11-03T14:06:16;8.33;;;2.60;;
20976;SDS011;10647;51.016;3.720;2022-11-03T14:08:44;6.37;;;2.10;;
20976;SDS011;10647;51.016;3.720;2022-11-03T14:11:11;7.05;;;1.77;;
20976;SDS011;10647;51.016;3.720;2022-11-03T14:13:57;4.08;;;1.77;;
20976;SDS011;10647;51.016;3.720;2022-11-03T14:16:24;7.47;;;2.00;;
20976;SDS011;10647;51.016;3.720;2022-11-03T14:18:52;4.67;;;1.80;;
20976;SDS011;10647;51.016;3.720;2022-11-03T14:21:19;5.27;;;1.93;;
20976;SDS011;10647;51.016;3.720;2022-11-03T14:23:47;6.23;;;2.20;;
20976;SDS011;10647;51.016;3.720;2022-11-03T14:26:14;6.07;;;2.17;;
20976;SDS011;10647;51.016;3.720;2022-11-03T14:28:42;8.83;;;2.67;;
20976;SDS011;10647;51.016;3.720;2022-11-03T14:31:09;10.70;;;3.70;;
20976;SDS011;10647;51.016;3.720;2022-11-03T14:33:37;7.30;;;3.07;;
20976;SDS011;10647;51.016;3.720;2022-11-03T14:36:10;6.73;;;2.40;;
20976;SDS011;10647;51.016;3.720;2022-11-03T14:38:37;8.00;;;3.70;;
20976;SDS011;10647;51.016;3.720;2022-11-03T14:41:05;7.70;;;2.83;;
20976;SDS011;10647;51.016;3.720;2022-11-03T14:43:50;10.97;;;2.70;;
20976;SDS011;10647;51.016;3.720;2022-11-03T14:46:18;6.83;;;2.37;;
20976;SDS011;10647;51.016;3.720;2022-11-03T14:48:45;7.13;;;2.83;;
20976;SDS011;10647;51.016;3.720;2022-11-03T14:51:13;7.00;;;2.70;;
20976;SDS011;10647;51.016;3.720;2022-11-03T14:53:40;9.17;;;2.97;;
20976;SDS011;10647;51.016;3.720;2022-11-03T14:56:10;4.90;;;2.50;;
20976;SDS011;10647;51.016;3.720;2022-11-03T14:58:37;6.87;;;2.50;;
20976;SDS011;10647;51.016;3.720;2022-11-03T15:01:05;5.70;;;2.80;;
20976;SDS011;10647;51.016;3.720;2022-11-03T15:03:33;8.00;;;3.17;;
20976;SDS011;10647;51.016;3.720;2022-11-03T15:06:01;8.37;;;3.10;;
20976;SDS011;10647;51.016;3.720;2022-11-03T15:08:29;8.87;;;3.00;;
20976;SDS011;10647;51.016;3.720;2022-11-03T15:10:57;11.40;;;4.30;;
20976;SDS011;10647;51.016;3.720;2022-11-03T15:13:24;11.27;;;3.90;;
20976;SDS011;10647;51.016;3.720;2022-11-03T15:15:52;17.07;;;5.03;;
20976;SDS011;10647;51.016;3.720;2022-11-03T15:18:19;29.07;;;8.90;;
20976;SDS011;10647;51.016;3.720;2022-11-03T15:20:47;26.73;;;8.37;;
20976;SDS011;10647;51.016;3.720;2022-11-03T15:23:15;10.60;;;3.80;;
20976;SDS011;10647;51.016;3.720;2022-11-03T15:25:42;8.87;;;3.60;;
20976;SDS011;10647;51.016;3.720;2022-11-03T15:28:10;13.57;;;4.50;;
20976;SDS011;10647;51.016;3.720;2022-11-03T15:30:37;10.27;;;3.70;;
20976;SDS011;10647;51.016;3.720;2022-11-03T15:33:05;10.43;;;3.53;;
20976;SDS011;10647;51.016;3.720;2022-11-03T15:35:32;10.23;;;3.67;;
20976;SDS011;10647;51.016;3.720;2022-11-03T15:38:00;11.60;;;4.20;;
20976;SDS011;10647;51.016;3.720;2022-11-03T15:40:27;11.00;;;4.07;;
20976;SDS011;10647;51.016;3.720;2022-11-03T15:42:55;14.60;;;4.60;;
20976;SDS011;10647;51.016;3.720;2022-11-03T15:45:22;12.17;;;4.13;;
20976;SDS011;10647;51.016;3.720;2022-11-03T15:47:51;15.23;;;4.80;;
20976;SDS011;10647;51.016;3.720;2022-11-03T15:50:18;11.40;;;4.47;;
20976;SDS011;10647;51.016;3.720;2022-11-03T15:52:46;12.27;;;4.50;;
20976;SDS011;10647;51.016;3.720;2022-11-03T15:55:13;9.00;;;4.30;;
20976;SDS011;10647;51.016;3.720;2022-11-03T15:57:41;11.73;;;4.50;;
20976;SDS011;10647;51.016;3.720;2022-11-03T16:00:09;12.50;;;4.37;;
20976;SDS011;10647;51.016;3.720;2022-11-03T16:02:38;14.67;;;4.90;;
20976;SDS011;10647;51.016;3.720;2022-11-03T16:05:07;12.80;;;4.77;;
20976;SDS011;10647;51.016;3.720;2022-11-03T16:07:35;14.07;;;5.30;;
20976;SDS011;10647;51.016;3.720;2022-11-03T16:10:02;16.03;;;5.47;;
20976;SDS011;10647;51.016;3.720;2022-11-03T16:12:30;10.10;;;5.20;;
20976;SDS011;10647;51.016;3.720;2022-11-03T16:14:58;14.70;;;5.30;;
20976;SDS011;10647;51.016;3.720;2022-11-03T16:17:25;12.90;;;5.67;;
20976;SDS011;10647;51.016;3.720;2022-11-03T16:19:53;14.43;;;5.23;;
20976;SDS011;10647;51.016;3.720;2022-11-03T16:22:20;13.80;;;5.40;;
20976;SDS011;10647;51.016;3.720;2022-11-03T16:24:47;14.07;;;5.47;;
20976;SDS011;10647;51.016;3.720;2022-11-03T16:27:15;12.70;;;5.47;;
20976;SDS011;10647;51.016;3.720;2022-11-03T16:29:42;14.60;;;6.00;;
20976;SDS011;10647;51.016;3.720;2022-11-03T16:32:10;15.73;;;6.90;;
20976;SDS011;10647;51.016;3.720;2022-11-03T16:34:38;19.77;;;6.67;;
20976;SDS011;10647;51.016;3.720;2022-11-03T16:37:05;15.97;;;6.00;;
20976;SDS011;10647;51.016;3.720;2022-11-03T16:39:34;13.17;;;6.27;;
20976;SDS011;10647;51.016;3.720;2022-11-03T16:42:03;10.03;;;6.40;;
20976;SDS011;10647;51.016;3.720;2022-11-03T16:44:30;14.77;;;6.27;;
20976;SDS011;10647;51.016;3.720;2022-11-03T16:46:59;11.27;;;6.33;;
20976;SDS011;10647;51.016;3.720;2022-11-03T16:49:27;16.07;;;6.67;;
20976;SDS011;10647;51.016;3.720;2022-11-03T16:51:54;15.43;;;6.80;;
20976;SDS011;10647;51.016;3.720;2022-11-03T16:54:22;11.43;;;6.80;;
20976;SDS011;10647;51.016;3.720;2022-11-03T16:56:50;13.30;;;6.60;;